Dubuque, IA (52004)

3:26 AM CDT on May 05, 2015 (GMT -0500)
Historic Federal Building | | Change Station
CLOSE
Current Station
Personal Weather Station
Location: Dubuque, IA
Elevation: 653 ft
Nearby Weather Stations
Active Advisory: Special Statement

Elev 653 ft 42.50 °N, 90.67 °W | Updated 4 minutes ago

Rain
Rain
56.7 °F
Feels Like 56.7 °F
N
2.0
Wind Variable Wind from ESE
Gusts 9.0 mph

Today
High -- | Low -- °F
--% Chance of Precip.
Yesterday
High -- | Low -- °F
Precip. -- in
5:52 AM 8:06 PM
Full, 98% visible
Pressure 30.14 in
Visibility 4.0 miles
Clouds Overcast 500 ft
Dew Point 54 °F
Humidity 92%
Rainfall 0.07 in
Snow Depth Not available.
UV 0 out of 12
Pollen 4.50 out of 12
Air Quality Not available.
Flu Activity Local Activity
METAR KDBQ 050753Z AUTO 07007KT 4SM -RA BR OVC005 14/13 A3014 RMK AO2 RAB04 CIG 003V007 SLP204 P0005 T01390128

More Conditions Fewer Conditions

Pressure 30.14 in
Visibility 4.0 miles
Clouds Overcast 500 ft
Dew Point 54 °F
Humidity 92%
Rainfall 0.07 in
Snow Depth Not available.
UV 0 out of 12
Pollen 4.50 out of 12
Air Quality Not available.
Flu Activity Local Activity
METAR KDBQ 050753Z AUTO 07007KT 4SM -RA BR OVC005 14/13 A3014 RMK AO2 RAB04 CIG 003V007 SLP204 P0005 T01390128

More Conditions Fewer Conditions

Nepal has a long way to go to dig out and rebuild from a devastating earthquake. We have teamed up with several charities and organizations to make contributing to the relief effort as easy as possible.
How you can help: Portlight Strategies | Red Cross

10-Day Weather Forecast

Almanac

Astronomy

May. 05, 2015 Rise Set
Actual Time
Civil Twilight
Nautical Twilight
Astronomical Twilight
Moon
Length of Visible Light
Length of Day
Tomorrow will be .
, % of the Moon is Illuminated

Today's Extremes

State Highs State Lows

Community

WunderPhotos

Upload Photos

1,818,814 photos uploaded!

WunderBlogs® & News

Nearby

Air Quality

  Air Quality AQ Index Pollutant
Not available.

Snow Depth

Station Depth Elevation

Earthquake Activity

City Distance Mag. Time & Date
Minimum magnitude displayed is 2.5.

Coastal Water Temperatures

Place Temperature

Stations

Nearby Weather Stations

Station Location Temp. Windchill Dew Point Humidity Wind Precip. Elev Updated Type
                   
Special Statement
Statement as of 9:52 PM CDT on May 04, 2015

... Periods of showers and thunderstorms with locally heavy
rainfall until at least 4 am...

A large area of showers and thunderstorms will affect the region
through at least 4 am. Mostly light to moderate rainfall rates
will be the case with brief periods of heavy rainfall rates. Most
locations will pick up at least a half inch of more of rain with
areas of over 1 inch expected. Locally over 2 inches is possible.
Minor water issues in low lying locations can be expected. Additional
rains may continue well into late Tuesday morning. Areas prone to
water issues should be monitored.


Nichols